D43 weather

Hopewell Airpark
Canandaigua, New York, United States

Public forecast

Using degrees Fahrenheit for public forecast. Weather courtesy of forecast.io.

METAR (pilot weather report)

Closest report is Penn Yan Airport, 18.9 nm (35.0 km) SSE. Retrieved 2019/05/21 15:53 UTC (10 minutes ago):

KPEO 211553Z AUTO 32011G19KT 10SM BKN044 15/04 A3008 RMK AO2 SLP186 T01500044

TAF (pilot weather forecast)

Closest forecast is Greater Rochester International Airport, 22.3 nm (41.4 km) WNW. Retrieved 2019/05/21 12:22 UTC (4 hours ago):

TAF KROC 211120Z 2112/2212 29010G16KT P6SM FEW250 FM212300 29008KT P6SM SKC FM220600 VRB03KT P6SM SKC